createdAt,value
2022-10-17T00:00:39.444Z,15.40
2022-10-17T00:03:06.366Z,15.40
2022-10-17T00:05:33.734Z,15.50
2022-10-17T00:08:00.478Z,15.50
2022-10-17T00:10:27.529Z,15.50
2022-10-17T00:12:54.228Z,15.40
2022-10-17T00:15:21.696Z,15.40
2022-10-17T00:17:48.732Z,15.40
2022-10-17T00:20:17.466Z,15.40
2022-10-17T00:22:44.386Z,15.40
2022-10-17T00:25:11.419Z,15.40
2022-10-17T00:27:39.876Z,15.40
2022-10-17T00:30:09.649Z,15.30
2022-10-17T00:32:36.369Z,15.30
2022-10-17T00:35:03.555Z,15.30
2022-10-17T00:37:31.282Z,15.30
2022-10-17T00:39:58.067Z,15.30
2022-10-17T00:42:26.059Z,15.30
2022-10-17T00:45:08.429Z,15.30
2022-10-17T00:47:36.546Z,15.20
2022-10-17T00:50:05.463Z,15.30
2022-10-17T00:52:32.493Z,15.20
2022-10-17T00:55:03.942Z,15.20
2022-10-17T00:57:31.671Z,15.20
2022-10-17T00:59:59.717Z,15.20
2022-10-17T01:02:26.768Z,15.30
2022-10-17T01:04:57.147Z,15.20
2022-10-17T01:07:23.941Z,15.20
2022-10-17T01:09:50.769Z,15.20
2022-10-17T01:12:21.851Z,15.20
2022-10-17T01:15:26.257Z,15.20
2022-10-17T01:18:15.770Z,15.20
2022-10-17T01:20:55.903Z,15.10
2022-10-17T01:23:44.507Z,15.20
2022-10-17T01:26:23.214Z,15.10
2022-10-17T01:29:14.838Z,15.10
2022-10-17T01:31:51.904Z,15.00
2022-10-17T01:34:22.115Z,15.10
2022-10-17T01:36:56.770Z,15.00
2022-10-17T01:39:30.029Z,15.00
2022-10-17T01:42:16.898Z,15.10
2022-10-17T01:44:55.810Z,15.00
2022-10-17T01:47:26.637Z,15.00
2022-10-17T01:49:55.211Z,15.00
2022-10-17T01:52:28.434Z,15.00
2022-10-17T01:54:59.685Z,15.00
2022-10-17T01:57:32.795Z,15.00
2022-10-17T02:00:00.626Z,15.00
2022-10-17T02:02:27.906Z,15.00
2022-10-17T02:04:56.090Z,15.00
2022-10-17T02:07:22.888Z,15.00
2022-10-17T02:09:49.606Z,15.00
2022-10-17T02:12:52.393Z,15.00
2022-10-17T02:15:36.100Z,15.00
2022-10-17T02:18:16.683Z,15.00
2022-10-17T02:21:03.421Z,15.10
2022-10-17T02:23:38.034Z,15.10
2022-10-17T02:26:17.386Z,15.00
2022-10-17T02:29:30.320Z,15.10
2022-10-17T02:32:12.396Z,15.10
2022-10-17T02:34:45.382Z,15.10
2022-10-17T02:37:14.963Z,15.10
2022-10-17T02:39:42.977Z,15.00
2022-10-17T02:42:12.102Z,15.00
2022-10-17T02:44:41.782Z,15.10
2022-10-17T02:47:29.309Z,15.00
2022-10-17T02:49:56.960Z,15.10
2022-10-17T02:52:37.237Z,15.00
2022-10-17T02:55:06.923Z,15.00
2022-10-17T02:57:50.101Z,15.00
2022-10-17T03:00:18.251Z,15.10
2022-10-17T03:02:47.350Z,15.10
2022-10-17T03:05:17.762Z,15.10
2022-10-17T03:07:44.762Z,15.10
2022-10-17T03:10:11.657Z,15.20
2022-10-17T03:12:38.393Z,15.10
2022-10-17T03:15:06.004Z,15.20
2022-10-17T03:17:33.195Z,15.20
2022-10-17T03:19:59.991Z,15.30
2022-10-17T03:22:27.044Z,15.30
2022-10-17T03:24:53.886Z,15.40
2022-10-17T03:27:20.579Z,15.30
2022-10-17T03:29:47.656Z,15.40
2022-10-17T03:32:14.368Z,15.50
2022-10-17T03:34:41.162Z,15.50
2022-10-17T03:37:07.878Z,15.50
2022-10-17T03:39:34.603Z,15.50
2022-10-17T03:42:01.328Z,15.50
2022-10-17T03:44:28.068Z,15.60
2022-10-17T03:46:54.827Z,15.70
2022-10-17T03:49:21.573Z,15.80
2022-10-17T03:51:48.293Z,15.80
2022-10-17T03:54:15.030Z,15.80
2022-10-17T03:56:41.810Z,15.80
2022-10-17T03:59:12.621Z,15.80
2022-10-17T04:01:39.463Z,15.80
2022-10-17T04:04:06.269Z,15.90
2022-10-17T04:06:33.100Z,15.80
2022-10-17T04:09:00.050Z,15.80
2022-10-17T04:11:26.828Z,15.80
2022-10-17T04:13:57.760Z,15.70
2022-10-17T04:16:24.771Z,15.80
2022-10-17T04:18:56.255Z,15.80
2022-10-17T04:21:24.769Z,15.80
2022-10-17T04:23:58.906Z,15.80
2022-10-17T04:26:26.449Z,15.90
2022-10-17T04:28:53.198Z,15.80
2022-10-17T04:31:20.070Z,15.90
2022-10-17T04:33:48.448Z,15.90
2022-10-17T04:36:17.821Z,15.90
2022-10-17T04:38:44.653Z,16.00
2022-10-17T04:41:13.860Z,15.90
2022-10-17T04:43:40.777Z,16.10
2022-10-17T04:46:10.342Z,16.00
2022-10-17T04:48:37.711Z,16.00
2022-10-17T04:51:08.037Z,16.00
2022-10-17T04:53:36.286Z,16.00
2022-10-17T04:56:08.770Z,16.00
2022-10-17T04:58:36.309Z,16.00
2022-10-17T05:01:07.927Z,16.00
2022-10-17T05:03:35.479Z,16.00
2022-10-17T05:06:13.343Z,16.00
2022-10-17T05:08:40.487Z,16.00
2022-10-17T05:11:15.880Z,15.90
2022-10-17T05:13:42.617Z,16.00
2022-10-17T05:16:09.389Z,16.00
2022-10-17T05:18:36.313Z,15.90
2022-10-17T05:21:04.155Z,15.90
2022-10-17T05:23:30.956Z,15.90
2022-10-17T05:25:58.041Z,16.10
2022-10-17T05:28:24.928Z,16.10
2022-10-17T05:30:54.130Z,16.10
2022-10-17T05:33:20.957Z,16.10
2022-10-17T05:35:47.988Z,16.10
2022-10-17T05:38:14.798Z,16.10
2022-10-17T05:40:41.513Z,16.10
2022-10-17T05:43:08.288Z,16.10
2022-10-17T05:45:36.077Z,16.10
2022-10-17T05:48:03.407Z,16.10
2022-10-17T05:50:30.171Z,16.10
2022-10-17T05:52:57.335Z,16.10
2022-10-17T05:55:24.121Z,16.10
2022-10-17T05:57:52.611Z,16.10
2022-10-17T06:00:20.237Z,16.10
2022-10-17T06:02:47.486Z,16.10
2022-10-17T06:05:14.751Z,16.10
2022-10-17T06:07:41.732Z,16.10
2022-10-17T06:10:09.163Z,16.00
2022-10-17T06:12:35.934Z,16.10
2022-10-17T06:15:02.812Z,16.10
2022-10-17T06:17:30.378Z,16.20
2022-10-17T06:19:57.557Z,16.20
2022-10-17T06:22:24.331Z,16.20
2022-10-17T06:24:52.647Z,16.10
2022-10-17T06:27:20.326Z,16.10
2022-10-17T06:29:47.972Z,16.10
2022-10-17T06:32:15.262Z,16.20
2022-10-17T06:34:42.150Z,16.20
2022-10-17T06:37:08.954Z,16.20
2022-10-17T06:39:36.010Z,16.20
2022-10-17T06:42:06.311Z,16.30
2022-10-17T06:44:33.069Z,16.30
2022-10-17T06:47:00.447Z,16.40
2022-10-17T06:49:27.735Z,16.30
2022-10-17T06:51:54.837Z,16.40
2022-10-17T06:54:21.595Z,16.40
2022-10-17T06:56:48.379Z,16.40
2022-10-17T06:59:15.744Z,16.40
2022-10-17T07:01:46.051Z,16.40
2022-10-17T07:04:17.060Z,16.40
2022-10-17T07:06:44.110Z,16.40
2022-10-17T07:09:10.870Z,16.40
2022-10-17T07:11:37.653Z,16.40
2022-10-17T07:14:04.429Z,16.40
2022-10-17T07:16:31.190Z,16.40
2022-10-17T07:18:58.096Z,16.40
2022-10-17T07:21:25.179Z,16.40
2022-10-17T07:23:52.029Z,16.40
2022-10-17T07:26:19.754Z,16.40
2022-10-17T07:28:47.811Z,16.40
2022-10-17T07:31:17.026Z,16.40
2022-10-17T07:36:16.805Z,16.40
2022-10-17T07:38:43.607Z,16.40
2022-10-17T07:41:17.773Z,16.30
2022-10-17T07:43:47.869Z,16.30
2022-10-17T07:46:14.650Z,16.30
2022-10-17T07:48:41.635Z,16.30
2022-10-17T07:51:09.625Z,16.30
2022-10-17T07:53:37.876Z,16.30
2022-10-17T07:56:06.738Z,16.30
2022-10-17T07:58:34.036Z,16.30
2022-10-17T08:03:34.267Z,16.30
2022-10-17T08:06:01.960Z,16.30
2022-10-17T08:08:28.958Z,16.30
2022-10-17T08:10:56.355Z,16.30
2022-10-17T08:13:23.298Z,16.30
2022-10-17T08:15:50.095Z,16.30
2022-10-17T08:18:18.370Z,16.30
2022-10-17T08:20:45.334Z,16.30
2022-10-17T08:23:12.083Z,16.30
2022-10-17T08:25:39.873Z,16.30
2022-10-17T08:30:34.516Z,16.30
2022-10-17T08:33:01.267Z,16.30
2022-10-17T08:35:28.372Z,16.30
2022-10-17T08:37:55.103Z,16.30
2022-10-17T08:40:25.548Z,16.30
2022-10-17T08:43:06.777Z,16.30
2022-10-17T08:46:05.358Z,16.40
2022-10-17T08:48:42.731Z,16.40
2022-10-17T08:51:16.411Z,16.40
2022-10-17T08:53:55.303Z,16.40
2022-10-17T08:56:48.107Z,16.40
2022-10-17T08:59:29.790Z,16.40
2022-10-17T09:02:15.204Z,16.40
2022-10-17T09:04:59.021Z,16.40
2022-10-17T09:07:34.771Z,16.40
2022-10-17T09:10:04.985Z,16.40
2022-10-17T09:13:08.835Z,16.40
2022-10-17T09:15:43.561Z,16.40
2022-10-17T09:18:21.115Z,16.40
2022-10-17T09:20:58.341Z,16.40
2022-10-17T09:23:28.179Z,16.40
2022-10-17T09:25:56.761Z,16.50
2022-10-17T09:28:32.937Z,16.50
2022-10-17T09:31:07.275Z,16.50
2022-10-17T09:33:56.644Z,16.50
2022-10-17T09:36:25.054Z,16.50
2022-10-17T09:38:57.723Z,16.50
2022-10-17T09:41:44.734Z,16.50
2022-10-17T09:44:34.608Z,16.50
2022-10-17T09:47:22.234Z,16.50
2022-10-17T09:49:49.987Z,16.50
2022-10-17T09:52:21.756Z,16.50
2022-10-17T09:54:54.348Z,16.50
2022-10-17T09:57:21.702Z,16.50
2022-10-17T09:59:57.973Z,16.60
2022-10-17T10:02:26.467Z,16.60
2022-10-17T10:05:16.308Z,16.60
2022-10-17T10:07:44.006Z,16.60
2022-10-17T10:10:27.770Z,16.60
2022-10-17T10:13:13.055Z,16.60
2022-10-17T10:15:48.666Z,16.60
2022-10-17T10:18:24.713Z,16.60
2022-10-17T10:21:15.523Z,16.60
2022-10-17T10:24:13.178Z,16.60
2022-10-17T10:26:46.017Z,16.70
2022-10-17T10:29:25.071Z,16.60
2022-10-17T10:31:52.281Z,16.60
2022-10-17T10:34:26.097Z,16.70
2022-10-17T10:37:17.201Z,16.70
2022-10-17T10:39:55.959Z,16.70
2022-10-17T10:42:34.966Z,16.80
2022-10-17T10:45:47.878Z,16.80
2022-10-17T10:48:26.402Z,16.90
2022-10-17T10:51:01.934Z,17.00
2022-10-17T10:53:35.560Z,17.00
2022-10-17T10:56:21.665Z,17.10
2022-10-17T10:59:02.718Z,17.20
2022-10-17T11:01:41.849Z,17.10
2022-10-17T11:04:42.671Z,17.20
2022-10-17T11:07:30.850Z,17.20
2022-10-17T11:10:35.713Z,17.40
2022-10-17T11:13:28.907Z,17.50
2022-10-17T11:16:18.988Z,17.50
2022-10-17T11:19:09.972Z,17.50
2022-10-17T11:21:49.390Z,17.50
2022-10-17T11:24:24.633Z,17.60
2022-10-17T11:27:01.182Z,17.60
2022-10-17T11:29:33.794Z,17.60
2022-10-17T11:32:05.854Z,17.70
2022-10-17T11:34:36.968Z,17.70
2022-10-17T11:37:15.422Z,17.70
2022-10-17T11:39:49.174Z,17.70
2022-10-17T11:42:20.013Z,17.80
2022-10-17T11:44:49.491Z,17.70
2022-10-17T11:47:46.839Z,17.80
2022-10-17T11:53:25.219Z,17.70
2022-10-17T11:55:54.144Z,17.70
2022-10-17T11:58:24.114Z,17.80
2022-10-17T12:00:53.505Z,17.80
2022-10-17T12:03:35.586Z,17.80
2022-10-17T12:06:11.402Z,17.80
2022-10-17T12:08:49.029Z,17.80
2022-10-17T12:11:44.005Z,17.90
2022-10-17T12:14:50.112Z,17.90
2022-10-17T12:17:32.992Z,17.90
2022-10-17T12:20:24.927Z,17.90
2022-10-17T12:22:58.198Z,18.00
2022-10-17T12:25:31.652Z,18.00
2022-10-17T12:28:19.586Z,18.00
2022-10-17T12:30:56.144Z,18.00
2022-10-17T12:33:33.260Z,18.00
2022-10-17T12:36:18.785Z,18.10
2022-10-17T12:38:49.889Z,18.10
2022-10-17T12:41:24.612Z,18.10
2022-10-17T12:43:52.867Z,18.10
2022-10-17T12:46:41.642Z,18.20
2022-10-17T12:49:37.187Z,18.20
2022-10-17T12:52:16.020Z,18.20
2022-10-17T12:55:14.363Z,18.30
2022-10-17T12:57:53.961Z,18.30
2022-10-17T13:00:34.127Z,18.30
2022-10-17T13:03:14.661Z,18.30
2022-10-17T13:05:46.197Z,18.30
2022-10-17T13:08:20.116Z,18.30
2022-10-17T13:10:51.665Z,18.40
2022-10-17T13:13:22.002Z,18.40
2022-10-17T13:15:54.179Z,18.40
2022-10-17T13:18:27.443Z,18.50
2022-10-17T13:21:06.582Z,18.50
2022-10-17T13:23:35.840Z,18.40
2022-10-17T13:26:14.990Z,18.50
2022-10-17T13:28:43.320Z,18.50
2022-10-17T13:31:31.361Z,18.50
2022-10-17T13:34:00.929Z,18.50
2022-10-17T13:36:29.805Z,18.50
2022-10-17T13:38:58.946Z,18.60
2022-10-17T13:41:36.822Z,18.50
2022-10-17T13:44:10.701Z,18.60
2022-10-17T13:46:39.921Z,18.60
2022-10-17T13:49:18.790Z,18.70
2022-10-17T13:51:49.193Z,18.70
2022-10-17T13:54:33.814Z,18.70
2022-10-17T13:57:01.315Z,18.70
2022-10-17T13:59:34.560Z,18.70
2022-10-17T14:02:02.057Z,18.70
2022-10-17T14:04:36.122Z,18.70
2022-10-17T14:08:15.064Z,18.80
2022-10-17T14:10:44.194Z,18.80
2022-10-17T14:13:30.064Z,18.80
2022-10-17T14:16:00.370Z,18.80
2022-10-17T14:18:34.880Z,18.80
2022-10-17T14:23:52.303Z,18.90
2022-10-17T14:26:23.160Z,18.90
2022-10-17T14:29:29.529Z,18.90
2022-10-17T14:32:08.654Z,19.00
2022-10-17T14:34:40.571Z,19.00
2022-10-17T14:37:12.739Z,19.00
2022-10-17T14:39:39.782Z,19.00
2022-10-17T14:42:06.623Z,19.00
2022-10-17T14:44:35.599Z,19.00
2022-10-17T14:47:30.677Z,19.00
2022-10-17T14:50:24.770Z,19.00
2022-10-17T14:53:06.658Z,19.00
2022-10-17T14:55:35.304Z,19.00
2022-10-17T14:58:16.279Z,19.00
2022-10-17T15:00:43.043Z,19.00
2022-10-17T15:03:09.836Z,19.00
2022-10-17T15:05:36.715Z,19.00
2022-10-17T15:08:03.618Z,19.00
2022-10-17T15:10:35.739Z,19.00
2022-10-17T15:13:27.276Z,19.00
2022-10-17T15:15:52.145Z,19.00
2022-10-17T15:18:19.223Z,19.00
2022-10-17T15:20:46.008Z,19.00
2022-10-17T15:23:12.868Z,19.00
2022-10-17T15:25:39.853Z,18.90
2022-10-17T15:28:06.656Z,18.90
2022-10-17T15:30:36.404Z,18.80
2022-10-17T15:33:03.336Z,18.90
2022-10-17T15:35:30.527Z,18.90
2022-10-17T15:37:57.350Z,18.90
2022-10-17T15:40:29.243Z,19.00
2022-10-17T15:42:56.542Z,18.90
2022-10-17T15:45:23.715Z,18.80
2022-10-17T15:47:52.667Z,18.80
2022-10-17T15:50:19.681Z,18.80
2022-10-17T15:52:47.228Z,18.80
2022-10-17T15:55:14.053Z,18.80
2022-10-17T15:57:43.119Z,18.80
2022-10-17T16:00:19.255Z,18.80
2022-10-17T16:02:46.594Z,18.80
2022-10-17T16:05:26.118Z,18.80
2022-10-17T16:07:53.755Z,18.80
2022-10-17T16:10:21.553Z,18.80
2022-10-17T16:12:50.209Z,18.80
2022-10-17T16:15:22.970Z,18.70
2022-10-17T16:17:50.554Z,18.70
2022-10-17T16:20:18.150Z,18.80
2022-10-17T16:22:45.121Z,18.70
2022-10-17T16:25:22.117Z,18.70
2022-10-17T16:27:51.758Z,18.70
2022-10-17T16:30:19.652Z,18.70
2022-10-17T16:32:46.672Z,18.70
2022-10-17T16:35:18.753Z,18.70
2022-10-17T16:37:45.561Z,18.60
2022-10-17T16:40:12.615Z,18.60
2022-10-17T16:42:39.607Z,18.60
2022-10-17T16:45:06.827Z,18.60
2022-10-17T16:47:33.632Z,18.60
2022-10-17T16:50:00.516Z,18.60
2022-10-17T16:52:27.379Z,18.50
2022-10-17T16:54:54.255Z,18.40
2022-10-17T16:57:21.065Z,18.40
2022-10-17T16:59:47.823Z,18.50
2022-10-17T17:02:17.572Z,18.40
2022-10-17T17:04:47.256Z,18.40
2022-10-17T17:07:13.999Z,18.40
2022-10-17T17:09:40.821Z,18.40
2022-10-17T17:12:07.537Z,18.30
2022-10-17T17:14:35.345Z,18.30
2022-10-17T17:17:02.100Z,18.20
2022-10-17T17:19:28.872Z,18.20
2022-10-17T17:21:55.712Z,18.20
2022-10-17T17:24:22.483Z,18.20
2022-10-17T17:26:53.876Z,18.10
2022-10-17T17:29:21.964Z,18.10
2022-10-17T17:31:49.512Z,18.10
2022-10-17T17:34:18.189Z,18.10
2022-10-17T17:36:45.466Z,18.00
2022-10-17T17:39:13.945Z,18.00
2022-10-17T17:41:41.649Z,18.00
2022-10-17T17:44:12.477Z,18.00
2022-10-17T17:46:43.702Z,18.00
2022-10-17T17:49:11.581Z,17.90
2022-10-17T17:51:38.814Z,17.90
2022-10-17T17:54:05.635Z,17.90
2022-10-17T17:56:41.834Z,17.80
2022-10-17T17:59:11.319Z,17.80
2022-10-17T18:01:39.122Z,17.80
2022-10-17T18:04:08.861Z,17.80
2022-10-17T18:06:37.533Z,17.80
2022-10-17T18:09:05.431Z,17.80
2022-10-17T18:11:32.805Z,17.80
2022-10-17T18:14:02.289Z,17.70
2022-10-17T18:16:30.549Z,17.70
2022-10-17T18:19:00.307Z,17.70
2022-10-17T18:21:29.350Z,17.70
2022-10-17T18:23:56.118Z,17.70
2022-10-17T18:26:22.997Z,17.60
2022-10-17T18:28:50.694Z,17.60
2022-10-17T18:31:22.250Z,17.60
2022-10-17T18:33:51.490Z,17.60
2022-10-17T18:36:18.700Z,17.60
2022-10-17T18:38:45.521Z,17.60
2022-10-17T18:41:15.270Z,17.60
2022-10-17T18:43:43.552Z,17.60
2022-10-17T18:46:15.390Z,17.60
2022-10-17T18:48:44.546Z,17.60
2022-10-17T18:51:12.694Z,17.50
2022-10-17T18:53:43.529Z,17.50
2022-10-17T18:56:10.779Z,17.40
2022-10-17T18:58:38.308Z,17.30
2022-10-17T19:01:10.810Z,17.30
2022-10-17T19:03:38.103Z,17.30
2022-10-17T19:06:09.441Z,17.30
2022-10-17T19:08:37.464Z,17.30
2022-10-17T19:11:16.243Z,17.30
2022-10-17T19:13:43.791Z,17.30
2022-10-17T19:16:17.321Z,17.30
2022-10-17T19:18:49.459Z,17.30
2022-10-17T19:21:21.536Z,17.30
2022-10-17T19:23:53.803Z,17.20
2022-10-17T19:26:21.306Z,17.30
2022-10-17T19:28:48.167Z,17.20
2022-10-17T19:31:17.635Z,17.20
2022-10-17T19:33:44.990Z,17.20
2022-10-17T19:36:12.731Z,17.10
2022-10-17T19:38:39.790Z,17.10
2022-10-17T19:41:08.443Z,17.10
2022-10-17T19:43:43.070Z,17.00
2022-10-17T19:46:18.424Z,17.10
2022-10-17T19:48:45.577Z,17.10
2022-10-17T19:51:14.833Z,17.10
2022-10-17T19:53:42.577Z,17.00
2022-10-17T19:56:10.752Z,17.00
2022-10-17T19:58:44.597Z,17.00
2022-10-17T20:01:13.656Z,17.00
2022-10-17T20:03:40.537Z,17.00
2022-10-17T20:06:07.511Z,17.00
2022-10-17T20:08:34.289Z,17.00
2022-10-17T20:11:11.670Z,17.00
2022-10-17T20:13:38.768Z,16.90
2022-10-17T20:16:07.230Z,16.90
2022-10-17T20:18:34.766Z,16.90
2022-10-17T20:21:07.038Z,16.90
2022-10-17T20:23:34.144Z,16.80
2022-10-17T20:26:08.115Z,16.80
2022-10-17T20:28:46.335Z,16.80
2022-10-17T20:31:13.463Z,16.90
2022-10-17T20:33:41.577Z,16.80
2022-10-17T20:36:10.325Z,16.80
2022-10-17T20:38:37.212Z,16.80
2022-10-17T20:41:06.201Z,16.80
2022-10-17T20:43:34.010Z,16.80
2022-10-17T20:46:09.636Z,16.70
2022-10-17T20:48:52.145Z,16.70
2022-10-17T20:51:19.225Z,16.70
2022-10-17T20:53:46.448Z,16.70
2022-10-17T20:56:19.892Z,16.70
2022-10-17T20:58:51.182Z,16.60
2022-10-17T21:01:17.999Z,16.60
2022-10-17T21:03:46.625Z,16.60
2022-10-17T21:06:14.053Z,16.60
2022-10-17T21:08:40.955Z,16.60
2022-10-17T21:11:16.554Z,16.60
2022-10-17T21:13:44.053Z,16.60
2022-10-17T21:16:13.423Z,16.50
2022-10-17T21:18:40.885Z,16.50
2022-10-17T21:21:16.267Z,16.50
2022-10-17T21:23:47.295Z,16.40
2022-10-17T21:26:14.282Z,16.40
2022-10-17T21:28:41.737Z,16.40
2022-10-17T21:31:09.265Z,16.40
2022-10-17T21:33:36.107Z,16.40
2022-10-17T21:36:03.191Z,16.40
2022-10-17T21:38:30.037Z,16.40
2022-10-17T21:40:56.911Z,16.40
2022-10-17T21:43:24.025Z,16.30
2022-10-17T21:45:51.109Z,16.30
2022-10-17T21:48:18.154Z,16.30
2022-10-17T21:50:44.975Z,16.30
2022-10-17T21:53:11.960Z,16.30
2022-10-17T21:55:40.087Z,16.30
2022-10-17T21:58:06.893Z,16.30
2022-10-17T22:00:33.633Z,16.30
2022-10-17T22:03:01.144Z,16.30
2022-10-17T22:05:27.959Z,16.20
2022-10-17T22:07:54.713Z,16.20
2022-10-17T22:10:21.414Z,16.20
2022-10-17T22:12:48.200Z,16.20
2022-10-17T22:17:46.708Z,16.10
2022-10-17T22:20:13.429Z,16.10
2022-10-17T22:22:40.154Z,16.10
2022-10-17T22:25:07.238Z,16.10
2022-10-17T22:27:36.931Z,16.10
2022-10-17T22:30:05.015Z,16.10
2022-10-17T22:32:31.765Z,16.10
2022-10-17T22:34:58.481Z,16.10
2022-10-17T22:37:25.551Z,16.10
2022-10-17T22:39:52.391Z,16.10
2022-10-17T22:42:19.163Z,16.00
2022-10-17T22:44:46.613Z,16.00
2022-10-17T22:47:13.366Z,16.00
2022-10-17T22:49:40.089Z,16.00
2022-10-17T22:52:06.814Z,16.00
2022-10-17T22:54:33.582Z,16.00
2022-10-17T22:57:00.369Z,16.00
2022-10-17T22:59:30.035Z,16.00
2022-10-17T23:01:56.816Z,15.90
2022-10-17T23:04:23.581Z,15.90
2022-10-17T23:06:50.283Z,15.90
2022-10-17T23:09:17.087Z,15.90
2022-10-17T23:11:43.855Z,15.90
2022-10-17T23:14:10.832Z,15.90
2022-10-17T23:16:37.524Z,15.90
2022-10-17T23:19:04.262Z,15.90
2022-10-17T23:21:31.079Z,15.80
2022-10-17T23:23:57.792Z,15.80
2022-10-17T23:26:24.670Z,15.80
2022-10-17T23:28:54.100Z,15.80
2022-10-17T23:31:22.035Z,15.80
2022-10-17T23:33:49.736Z,15.80
2022-10-17T23:36:19.033Z,15.70
2022-10-17T23:38:46.710Z,15.70
2022-10-17T23:41:14.508Z,15.70
2022-10-17T23:43:41.532Z,15.70
2022-10-17T23:46:08.647Z,15.70
2022-10-17T23:48:35.741Z,15.70
2022-10-17T23:51:02.616Z,15.60
2022-10-17T23:53:32.177Z,15.60
2022-10-17T23:55:58.950Z,15.60
2022-10-17T23:58:25.758Z,15.60
